Time;durP1;ratioP1;P1;durP2;ratioP2;P2;SDS_P1;SDS_P2;PMS_P1;PMS_P2;Temp;Humidity;BMP_temperature;BMP_pressure;BME280_temperature;BME280_humidity;BME280_pressure;Samples;Min_cycle;Max_cycle;Signal;HPM_P1;HPM_P2
2021/03/05 00:02:52;;;;;;;1.23;0.85;;;;;;;1.95;100.00;101267.78;5072875;28;20389;-80
2021/03/05 00:05:55;;;;;;;1.27;0.85;;;;;;;1.95;100.00;101278.78;5072701;28;20535;-80
2021/03/05 00:08:59;;;;;;;0.50;0.40;;;;;;;1.96;100.00;101283.09;5073181;28;20051;-80
2021/03/05 00:12:03;;;;;;;1.40;0.63;;;;;;;1.98;100.00;101278.00;5060456;28;20397;-80
2021/03/05 00:15:11;;;;;;;0.47;0.47;;;;;;;1.99;100.00;101280.34;5060441;28;20051;-80
2021/03/05 00:18:16;;;;;;;0.75;0.60;;;;;;;2.03;100.00;101285.88;5040853;28;919961;-80
2021/03/05 00:21:19;;;;;;;0.82;0.57;;;;;;;2.05;100.00;101291.78;5061299;28;20047;-80
2021/03/05 00:24:23;;;;;;;6.70;1.55;;;;;;;2.07;100.00;101289.44;5073552;28;20043;-80
2021/03/05 00:27:26;;;;;;;9.80;1.33;;;;;;;2.05;100.00;101287.09;5040631;28;20066;-80
2021/03/05 00:30:29;;;;;;;3.10;1.65;;;;;;;2.05;100.00;101284.34;5053275;28;20055;-80
2021/03/05 00:33:33;;;;;;;0.52;0.52;;;;;;;2.04;100.00;101293.72;5040838;28;20056;-80
2021/03/05 00:36:36;;;;;;;0.70;0.70;;;;;;;2.05;100.00;101297.28;5039977;28;20052;-80
2021/03/05 00:39:40;;;;;;;0.30;0.30;;;;;;;2.06;100.00;101293.34;5063624;28;20687;-80
2021/03/05 00:42:46;;;;;;;0.68;0.68;;;;;;;2.07;100.00;101290.22;5041572;28;20044;-80
2021/03/05 00:45:50;;;;;;;0.60;0.60;;;;;;;2.04;100.00;101293.72;5014957;28;20201;-81
2021/03/05 00:48:54;;;;;;;0.57;0.57;;;;;;;2.03;100.00;101291.38;5001096;28;20075;-77
2021/03/05 00:51:58;;;;;;;1.65;0.70;;;;;;;2.00;100.00;101292.13;5023281;28;20067;-78
2021/03/05 00:55:09;;;;;;;0.50;0.47;;;;;;;1.97;100.00;101298.41;5019457;28;20047;-78
2021/03/05 00:58:13;;;;;;;0.43;0.43;;;;;;;2.00;100.00;101294.88;5019672;28;20695;-77
2021/03/05 01:01:18;;;;;;;2.65;1.15;;;;;;;1.98;100.00;101310.97;5020128;28;20520;-78
2021/03/05 01:04:24;;;;;;;0.50;0.50;;;;;;;1.99;100.00;101315.28;5020389;28;20524;-77
2021/03/05 01:07:28;;;;;;;0.52;0.52;;;;;;;1.98;100.00;101320.00;5033188;28;20492;-77
2021/03/05 01:10:33;;;;;;;11.05;1.38;;;;;;;1.96;100.00;101319.59;5021642;28;20225;-77
2021/03/05 01:13:36;;;;;;;0.63;0.63;;;;;;;1.94;100.00;101315.63;5034651;28;20036;-76
2021/03/05 01:16:40;;;;;;;2.05;0.68;;;;;;;1.94;100.00;101321.13;5019720;28;21031;-76
2021/03/05 01:19:45;;;;;;;1.08;0.98;;;;;;;1.94;100.00;101315.63;5032625;28;20595;-77
2021/03/05 01:22:49;;;;;;;0.60;0.60;;;;;;;1.94;100.00;101327.41;5032101;28;20040;-77
2021/03/05 01:25:54;;;;;;;6.53;1.35;;;;;;;1.92;100.00;101318.78;5019711;28;20362;-77
2021/03/05 01:28:59;;;;;;;5.15;1.10;;;;;;;1.91;100.00;101316.38;5020497;28;20044;-77
2021/03/05 01:32:03;;;;;;;1.10;0.45;;;;;;;1.91;100.00;101317.19;5031502;28;20888;-77
2021/03/05 01:35:14;;;;;;;0.47;0.47;;;;;;;1.92;100.00;101317.97;5031417;28;20400;-77
2021/03/05 01:38:18;;;;;;;24.13;1.35;;;;;;;1.90;100.00;101312.09;5031559;28;21006;-77
2021/03/05 01:41:21;;;;;;;0.60;0.50;;;;;;;1.90;100.00;101306.59;5020369;28;20047;-77
2021/03/05 01:44:26;;;;;;;0.35;0.35;;;;;;;1.91;100.00;101317.19;5032853;28;20417;-77
2021/03/05 01:47:30;;;;;;;0.40;0.40;;;;;;;1.88;100.00;101319.91;5031448;28;20039;-77
2021/03/05 01:50:40;;;;;;;1.20;0.85;;;;;;;1.89;100.00;101319.53;5018895;28;20040;-77
2021/03/05 01:53:46;;;;;;;0.50;0.50;;;;;;;1.90;100.00;101326.63;5031461;28;20035;-77
2021/03/05 01:56:54;;;;;;;0.50;0.50;;;;;;;1.88;100.00;101322.66;5032324;28;20266;-77
2021/03/05 01:59:57;;;;;;;0.30;0.30;;;;;;;1.88;100.00;101328.94;5031705;28;20775;-77
2021/03/05 02:03:01;;;;;;;0.40;0.40;;;;;;;1.87;100.00;101332.06;5032425;28;20051;-77
2021/03/05 02:06:06;;;;;;;0.60;0.60;;;;;;;1.85;100.00;101328.91;5021393;28;20051;-76
2021/03/05 02:09:09;;;;;;;2.00;0.98;;;;;;;1.86;100.00;101330.50;5034611;28;20571;-77
2021/03/05 02:12:13;;;;;;;2.65;0.85;;;;;;;1.82;100.00;101329.69;5050392;28;20047;-76
2021/03/05 02:15:16;;;;;;;1.08;0.40;;;;;;;1.80;100.00;101329.28;5071779;28;20499;-76
2021/03/05 02:18:34;;;;;;;0.40;0.40;;;;;;;1.76;100.00;101336.66;5059198;28;20055;-77
2021/03/05 02:21:43;;;;;;;0.60;0.60;;;;;;;1.72;100.00;101324.88;5058759;28;20052;-76
2021/03/05 02:25:05;;;;;;;0.95;0.95;;;;;;;1.68;100.00;101330.34;5070888;28;20500;-76
2021/03/05 02:28:24;;;;;;;2.83;0.47;;;;;;;1.71;100.00;101317.81;5071879;28;20048;-76
2021/03/05 02:31:39;;;;;;;1.65;1.00;;;;;;;1.76;100.00;101320.19;5059341;28;20052;-76
2021/03/05 02:34:47;;;;;;;0.43;0.43;;;;;;;1.80;100.00;101326.53;5070658;28;20056;-76
2021/03/05 02:37:53;;;;;;;0.55;0.55;;;;;;;1.77;100.00;101325.31;5059036;28;20502;-76
2021/03/05 02:40:59;;;;;;;0.60;0.60;;;;;;;1.76;100.00;101331.19;5071531;28;20047;-76
2021/03/05 02:44:05;;;;;;;0.45;0.45;;;;;;;1.73;100.00;101334.69;5071352;28;20055;-76
2021/03/05 02:47:13;;;;;;;0.73;0.73;;;;;;;1.69;100.00;101336.63;5071289;28;20044;-76
2021/03/05 02:50:20;;;;;;;4.38;1.67;;;;;;;1.64;100.00;101332.28;5059203;28;20043;-76
2021/03/05 02:53:26;;;;;;;4.18;0.47;;;;;;;1.61;100.00;101324.00;5058967;28;20056;-76
2021/03/05 02:56:32;;;;;;;0.40;0.40;;;;;;;1.58;100.00;101330.25;5057572;28;20051;-76
2021/03/05 02:59:37;;;;;;;0.80;0.80;;;;;;;1.60;100.00;101322.44;5059609;28;20067;-76
2021/03/05 03:02:43;;;;;;;1.38;0.82;;;;;;;1.60;100.00;101325.19;5074919;28;20055;-76
2021/03/05 03:05:50;;;;;;;0.50;0.50;;;;;;;1.62;100.00;101325.59;5062501;28;20071;-76
2021/03/05 03:08:56;;;;;;;1.00;0.70;;;;;;;1.63;100.00;101322.44;5062470;28;20043;-76
2021/03/05 03:12:01;;;;;;;0.50;0.50;;;;;;;1.65;100.00;101331.09;5062924;28;20059;-75
2021/03/05 03:15:08;;;;;;;7.97;0.55;;;;;;;1.65;100.00;101328.34;5062537;28;20043;-75
2021/03/05 03:18:13;;;;;;;0.60;0.60;;;;;;;1.66;100.00;101326.41;5074640;28;20047;-75
2021/03/05 03:21:17;;;;;;;1.75;1.25;;;;;;;1.67;100.00;101325.25;5074744;28;20041;-75
2021/03/05 03:24:21;;;;;;;0.73;0.73;;;;;;;1.69;100.00;101331.91;5074794;28;20044;-76
2021/03/05 03:27:24;;;;;;;0.50;0.50;;;;;;;1.72;100.00;101327.63;5074435;28;20044;-75
2021/03/05 03:30:28;;;;;;;0.20;0.20;;;;;;;1.71;100.00;101329.56;5061984;28;20047;-75
2021/03/05 03:33:32;;;;;;;7.53;0.80;;;;;;;1.71;100.00;101324.06;5062115;28;20118;-75
2021/03/05 03:36:37;;;;;;;0.98;0.88;;;;;;;1.72;100.00;101330.38;5074242;28;20055;-75
2021/03/05 03:39:42;;;;;;;15.43;1.38;;;;;;;1.75;100.00;101338.66;5074026;28;20599;-75
2021/03/05 03:42:47;;;;;;;1.05;1.05;;;;;;;1.76;100.00;101336.66;5062300;28;20060;-76
2021/03/05 03:45:51;;;;;;;2.20;1.35;;;;;;;1.77;100.00;101341.00;5062042;28;20381;-76
2021/03/05 03:49:02;;;;;;;6.32;0.82;;;;;;;1.79;100.00;101341.41;5074368;28;20385;-75
2021/03/05 03:52:24;;;;;;;0.47;0.47;;;;;;;1.81;100.00;101350.84;5061718;28;20401;-76
2021/03/05 03:55:28;;;;;;;0.40;0.40;;;;;;;1.81;100.00;101339.06;5061457;28;20044;-77
2021/03/05 03:58:31;;;;;;;4.57;0.88;;;;;;;1.82;100.00;101340.66;5073854;28;20401;-77
2021/03/05 04:01:35;;;;;;;1.20;0.52;;;;;;;1.80;100.00;101352.00;5061365;28;20048;-77
2021/03/05 04:04:39;;;;;;;0.40;0.40;;;;;;;1.79;100.00;101357.91;5073679;28;20063;-77
2021/03/05 04:07:44;;;;;;;0.52;0.52;;;;;;;1.79;100.00;101360.63;5061381;28;20064;-77
2021/03/05 04:10:48;;;;;;;1.05;0.77;;;;;;;1.77;100.00;101355.53;5073094;28;20103;-77
2021/03/05 04:13:52;;;;;;;0.32;0.32;;;;;;;1.80;100.00;101359.50;5061369;28;20052;-77
2021/03/05 04:16:55;;;;;;;7.78;1.23;;;;;;;1.77;100.00;101350.03;5061082;28;20064;-77
2021/03/05 04:20:00;;;;;;;0.77;0.60;;;;;;;1.78;100.00;101350.81;5061393;28;20051;-78
2021/03/05 04:23:05;;;;;;;0.50;0.50;;;;;;;1.78;100.00;101350.81;5073770;28;20512;-77
2021/03/05 04:26:08;;;;;;;0.75;0.75;;;;;;;1.77;100.00;101361.03;5061144;28;20043;-77
2021/03/05 04:29:12;;;;;;;0.55;0.55;;;;;;;1.78;100.00;101364.53;5073717;28;20044;-77
2021/03/05 04:32:15;;;;;;;0.50;0.50;;;;;;;1.78;100.00;101367.28;5073476;28;20393;-77
2021/03/05 04:35:19;;;;;;;0.55;0.55;;;;;;;1.78;100.00;101367.28;5061145;28;20051;-77
2021/03/05 04:38:23;;;;;;;0.43;0.43;;;;;;;1.77;100.00;101361.03;5060611;28;20099;-77
2021/03/05 04:41:26;;;;;;;0.77;0.77;;;;;;;1.76;100.00;101364.13;5073023;28;20367;-77
2021/03/05 04:44:29;;;;;;;1.05;0.95;;;;;;;1.76;100.00;101369.63;5060313;28;20075;-77
2021/03/05 04:47:33;;;;;;;3.13;0.85;;;;;;;1.78;100.00;101381.03;5060502;28;20043;-77
2021/03/05 04:50:36;;;;;;;2.17;0.80;;;;;;;1.79;100.00;101377.91;5072952;28;20047;-77
2021/03/05 04:53:40;;;;;;;0.40;0.40;;;;;;;1.79;100.00;101380.66;5072758;28;20048;-78
2021/03/05 04:56:43;;;;;;;0.20;0.20;;;;;;;1.80;100.00;101376.72;5072794;28;20048;-77
2021/03/05 04:59:47;;;;;;;0.30;0.20;;;;;;;1.85;100.00;101383.84;5060496;28;20111;-77
2021/03/05 05:02:50;;;;;;;0.50;0.50;;;;;;;1.82;100.00;101374.41;5060513;28;20040;-77
2021/03/05 05:05:54;;;;;;;0.30;0.30;;;;;;;1.81;100.00;101383.03;5060468;28;20040;-77
2021/03/05 05:08:57;;;;;;;0.35;0.35;;;;;;;1.79;100.00;101386.16;5060331;28;20039;-77
2021/03/05 05:12:01;;;;;;;0.43;0.43;;;;;;;1.78;100.00;101384.56;5060598;28;20134;-76
2021/03/05 05:15:06;;;;;;;3.40;0.43;;;;;;;1.77;100.00;101383.00;5060076;28;20098;-77
2021/03/05 05:18:10;;;;;;;2.03;1.13;;;;;;;1.81;100.00;101394.00;5072396;28;20051;-77
2021/03/05 05:21:13;;;;;;;1.27;0.60;;;;;;;1.81;100.00;101394.81;5072417;28;20047;-77
2021/03/05 05:24:16;;;;;;;0.30;0.30;;;;;;;1.80;100.00;101381.47;5059832;28;20063;-77
2021/03/05 05:27:20;;;;;;;0.40;0.40;;;;;;;1.73;100.00;101386.88;5072449;28;20052;-77
2021/03/05 05:30:24;;;;;;;0.60;0.60;;;;;;;1.73;100.00;101390.41;5059681;28;20043;-77
2021/03/05 05:33:27;;;;;;;0.60;0.60;;;;;;;1.73;100.00;101386.88;5059897;28;20389;-77
2021/03/05 05:36:31;;;;;;;3.05;0.50;;;;;;;1.71;100.00;101391.97;5072093;28;20504;-77
2021/03/05 05:39:34;;;;;;;13.68;0.88;;;;;;;1.69;100.00;101395.06;5072123;28;20047;-77
2021/03/05 05:42:38;;;;;;;0.95;0.95;;;;;;;1.67;100.00;101393.88;5059777;28;20055;-77
2021/03/05 05:45:45;;;;;;;0.40;0.40;;;;;;;1.64;100.00;101389.94;5059859;28;20107;-77
2021/03/05 05:48:49;;;;;;;0.50;0.50;;;;;;;1.63;100.00;101399.31;5072035;28;20059;-77
2021/03/05 05:51:57;;;;;;;18.92;1.73;;;;;;;1.60;100.00;101411.06;5071967;28;20067;-77
2021/03/05 05:55:06;;;;;;;4.78;0.70;;;;;;;1.58;100.00;101413.41;5059727;28;20039;-77
2021/03/05 05:58:09;;;;;;;5.00;0.40;;;;;;;1.56;100.00;101414.94;5059613;28;20039;-77
2021/03/05 06:01:14;;;;;;;0.60;0.60;;;;;;;1.52;100.00;101414.91;5059544;28;20062;-77
2021/03/05 06:04:18;;;;;;;0.60;0.60;;;;;;;1.51;100.00;101416.88;5071783;28;20512;-77
2021/03/05 06:07:22;;;;;;;0.75;0.75;;;;;;;1.49;100.00;101410.94;5059297;28;20039;-77
2021/03/05 06:10:26;;;;;;;0.98;0.80;;;;;;;1.46;100.00;101417.19;5071721;28;20048;-77
2021/03/05 06:13:29;;;;;;;4.97;0.93;;;;;;;1.48;100.00;101420.34;5059263;28;20051;-77
2021/03/05 06:16:34;;;;;;;0.90;0.90;;;;;;;1.47;100.00;101418.75;5059138;28;20043;-77
2021/03/05 06:19:38;;;;;;;2.28;2.17;;;;;;;1.44;100.00;101419.53;5059217;28;20056;-77
2021/03/05 06:22:42;;;;;;;0.40;0.40;;;;;;;1.41;100.00;101420.28;5071707;28;20047;-77
2021/03/05 06:25:45;;;;;;;0.85;0.55;;;;;;;1.39;100.00;101425.34;5071540;28;20066;-78
2021/03/05 06:29:05;;;;;;;0.40;0.40;;;;;;;1.32;100.00;101433.50;5072559;28;20047;-77
2021/03/05 06:32:19;;;;;;;0.57;0.57;;;;;;;1.29;100.00;101420.53;5071710;28;20397;-78
2021/03/05 06:35:24;;;;;;;1.38;0.82;;;;;;;1.27;100.00;101425.63;5074481;28;20056;-77
2021/03/05 06:38:39;;;;;;;0.60;0.60;;;;;;;1.25;100.00;101433.44;5063725;28;20052;-76
2021/03/05 06:41:42;;;;;;;0.43;0.43;;;;;;;1.24;100.00;101442.81;5063784;28;20055;-79
2021/03/05 06:44:45;;;;;;;0.63;0.63;;;;;;;1.23;100.00;101440.44;5063873;28;20047;-78
2021/03/05 06:48:06;;;;;;;6.45;1.05;;;;;;;1.18;100.00;101444.31;5063747;28;20043;-79
2021/03/05 06:51:10;;;;;;;0.50;0.50;;;;;;;1.28;100.00;101445.59;5063587;28;20047;-79
2021/03/05 06:54:14;;;;;;;3.90;1.95;;;;;;;1.35;100.00;101442.94;5063560;28;20043;-79
2021/03/05 06:57:26;;;;;;;0.50;0.50;;;;;;;1.41;100.00;101447.72;5075767;28;20055;-80
2021/03/05 07:00:30;;;;;;;0.40;0.40;;;;;;;1.40;100.00;101451.66;5075986;28;20051;-77
2021/03/05 07:03:33;;;;;;;2.50;1.17;;;;;;;1.42;100.00;101446.56;5063372;28;20515;-78
2021/03/05 07:06:41;;;;;;;0.50;0.50;;;;;;;1.38;100.00;101451.22;5063718;28;20048;-80
2021/03/05 07:09:51;;;;;;;0.40;0.40;;;;;;;1.33;100.00;101448.00;5063233;28;20048;-79
2021/03/05 07:13:02;;;;;;;0.45;0.45;;;;;;;1.31;100.00;101464.06;5063260;28;20504;-79
2021/03/05 07:16:06;;;;;;;1.05;0.88;;;;;;;1.29;100.00;101460.91;5063153;28;20044;-79
2021/03/05 07:19:11;;;;;;;1.45;0.40;;;;;;;1.33;100.00;101467.22;5062957;28;20059;-77
2021/03/05 07:22:17;;;;;;;2.63;0.77;;;;;;;1.36;100.00;101467.28;5062969;28;20043;-77
2021/03/05 07:25:23;;;;;;;2.65;0.90;;;;;;;1.40;100.00;101465.38;5062865;28;20056;-79
2021/03/05 07:28:27;;;;;;;0.70;0.70;;;;;;;1.41;100.00;101474.38;5063156;28;20051;-79
2021/03/05 07:31:32;;;;;;;3.50;0.90;;;;;;;1.40;100.00;101479.09;5063226;28;20107;-78
2021/03/05 07:34:47;;;;;;;3.25;0.68;;;;;;;1.40;100.00;101476.34;5062789;28;20048;-78
2021/03/05 07:37:57;;;;;;;2.85;1.25;;;;;;;1.43;100.00;101481.06;5062471;28;20068;-79
2021/03/05 07:41:02;;;;;;;1.50;1.40;;;;;;;1.43;100.00;101483.00;5061995;28;20055;-79
2021/03/05 07:44:06;;;;;;;0.90;0.90;;;;;;;1.48;100.00;101486.22;5062133;28;20579;-79
2021/03/05 07:47:11;;;;;;;0.80;0.80;;;;;;;1.63;100.00;101487.19;5074005;28;20048;-78
2021/03/05 07:50:20;;;;;;;1.27;0.75;;;;;;;1.77;100.00;101500.28;5060818;28;20039;-79
2021/03/05 07:53:24;;;;;;;0.40;0.40;;;;;;;1.86;100.00;101498.84;5062792;28;20047;-79
2021/03/05 07:56:49;;;;;;;3.72;0.77;;;;;;;1.96;100.00;101494.59;5060204;28;20504;-79
2021/03/05 07:59:55;;;;;;;0.70;0.70;;;;;;;2.09;100.00;101499.47;5066967;28;20051;-79
2021/03/05 08:02:59;;;;;;;2.08;0.98;;;;;;;2.25;100.00;101513.72;5060264;28;20051;-79
2021/03/05 08:06:03;;;;;;;0.68;0.63;;;;;;;2.37;100.00;101507.16;5059881;28;20047;-78
2021/03/05 08:09:07;;;;;;;0.75;0.75;;;;;;;2.49;100.00;101508.84;5061550;28;20067;-79
2021/03/05 08:12:46;;;;;;;3.20;0.50;;;;;;;2.57;100.00;101508.53;5061885;28;20044;-78
2021/03/05 08:15:49;;;;;;;0.95;0.95;;;;;;;2.68;100.00;101509.41;5059742;28;20051;-79
2021/03/05 08:19:14;;;;;;;0.70;0.70;;;;;;;2.76;100.00;101511.03;5051941;28;20060;-79
2021/03/05 08:22:18;;;;;;;0.40;0.40;;;;;;;2.87;100.00;101519.34;5039390;28;20056;-79
2021/03/05 08:25:24;;;;;;;0.43;0.43;;;;;;;2.92;100.00;101513.50;5051666;28;20044;-79
2021/03/05 08:28:39;;;;;;;0.38;0.38;;;;;;;2.98;100.00;101515.50;5040521;28;20044;-79
2021/03/05 08:31:44;;;;;;;0.65;0.35;;;;;;;3.06;100.00;101519.88;5046779;28;20047;-79
2021/03/05 08:34:48;;;;;;;0.55;0.55;;;;;;;3.14;100.00;101525.41;5073314;28;20052;-79
2021/03/05 08:38:15;;;;;;;0.90;0.43;;;;;;;3.20;100.00;101518.38;5060552;28;20052;-78
2021/03/05 08:41:24;;;;;;;0.45;0.45;;;;;;;3.26;100.00;101525.09;5061224;28;20052;-78
2021/03/05 08:44:28;;;;;;;0.40;0.40;;;;;;;3.31;100.00;101524.72;5064363;28;20501;-79
2021/03/05 08:47:33;;;;;;;1.00;0.60;;;;;;;3.38;100.00;101530.28;5057583;28;20073;-79
2021/03/05 08:50:38;;;;;;;0.80;0.80;;;;;;;3.42;100.00;101526.34;5061009;28;20055;-78
2021/03/05 08:53:49;;;;;;;0.20;0.20;;;;;;;3.48;100.00;101529.53;5060631;28;20515;-79
2021/03/05 08:56:54;;;;;;;0.32;0.32;;;;;;;3.53;100.00;101537.44;5057418;28;20504;-79
2021/03/05 08:59:58;;;;;;;0.28;0.28;;;;;;;3.57;100.00;101538.22;5040916;28;20056;-78
2021/03/05 09:03:12;;;;;;;0.50;0.50;;;;;;;3.59;100.00;101549.66;5063832;28;20390;-79
2021/03/05 09:06:16;;;;;;;0.68;0.68;;;;;;;3.69;100.00;101548.91;5055672;28;20044;-77
2021/03/05 09:09:23;;;;;;;0.85;0.38;;;;;;;3.79;100.00;101550.88;5056981;28;20047;-77
2021/03/05 09:12:27;;;;;;;1.17;0.45;;;;;;;3.88;100.00;101548.56;5051521;28;20063;-78
2021/03/05 09:15:44;;;;;;;0.20;0.20;;;;;;;3.94;100.00;101560.03;5068861;28;20051;-78
2021/03/05 09:18:48;;;;;;;1.95;0.85;;;;;;;3.99;100.00;101554.09;5071827;28;20044;-78
2021/03/05 09:22:07;;;;;;;0.43;0.43;;;;;;;4.07;100.00;101555.72;5071700;28;20048;-78
2021/03/05 09:25:11;;;;;;;0.57;0.57;;;;;;;4.12;100.00;101552.56;5059356;28;20074;-78
2021/03/05 09:28:14;;;;;;;3.60;0.50;;;;;;;4.14;100.00;101562.03;5059229;28;20500;-78
2021/03/05 09:31:25;;;;;;;0.45;0.45;;;;;;;4.19;100.00;101569.13;5083002;28;20071;-78
2021/03/05 09:34:29;;;;;;;0.98;0.50;;;;;;;4.20;100.00;101557.72;5059932;28;20409;-78
2021/03/05 09:37:33;;;;;;;3.70;1.00;;;;;;;4.28;100.00;101567.59;5059265;28;20047;-78
2021/03/05 09:40:36;;;;;;;0.15;0.15;;;;;;;4.39;100.00;101562.91;5083119;28;20055;-78
2021/03/05 09:43:40;;;;;;;0.22;0.22;;;;;;;4.46;100.00;101560.13;5059562;28;20508;-78
2021/03/05 09:46:44;;;;;;;0.25;0.25;;;;;;;4.51;100.00;101578.25;5059673;28;20048;-77
2021/03/05 09:49:47;;;;;;;0.98;0.90;;;;;;;4.45;100.00;101577.88;5059744;28;20067;-78
2021/03/05 09:52:51;;;;;;;0.55;0.20;;;;;;;4.34;100.00;101587.28;5071841;28;20051;-78
2021/03/05 09:55:57;;;;;;;0.15;0.15;;;;;;;4.24;100.00;101599.91;5059667;28;20047;-78
2021/03/05 09:59:02;;;;;;;0.22;0.22;;;;;;;4.20;100.00;101585.28;5071907;28;20047;-78
2021/03/05 10:02:07;;;;;;;0.22;0.22;;;;;;;4.18;100.00;101590.41;5072146;28;20047;-78
2021/03/05 10:05:11;;;;;;;0.17;0.17;;;;;;;4.18;100.00;101590.41;5059577;28;20067;-78
2021/03/05 10:08:24;;;;;;;1.20;0.20;;;;;;;4.26;100.00;101591.22;5060004;28;20492;-78
2021/03/05 10:11:48;;;;;;;1.38;0.28;;;;;;;4.30;100.00;101598.31;5063525;28;20040;-78
2021/03/05 10:14:51;;;;;;;2.65;0.30;;;;;;;4.32;100.00;101595.97;5054836;28;20393;-78
2021/03/05 10:17:58;;;;;;;1.58;0.40;;;;;;;4.26;100.00;101594.78;5066250;28;20052;-78
2021/03/05 10:21:01;;;;;;;0.68;0.57;;;;;;;4.19;100.00;101600.25;5055785;28;20414;-78
2021/03/05 10:24:08;;;;;;;0.30;0.30;;;;;;;4.17;100.00;101607.34;5055029;28;20043;-78
2021/03/05 10:27:19;;;;;;;0.47;0.47;;;;;;;4.17;100.00;101615.63;5054803;28;20055;-78
2021/03/05 10:30:22;;;;;;;0.30;0.30;;;;;;;4.11;100.00;101611.66;5055621;28;20513;-77
2021/03/05 10:33:37;;;;;;;2.30;0.63;;;;;;;4.05;100.00;101613.97;5054731;28;20402;-79
2021/03/05 10:36:41;;;;;;;0.73;0.10;;;;;;;4.04;100.00;101626.22;5054512;28;20044;-79
2021/03/05 10:39:46;;;;;;;0.30;0.30;;;;;;;4.07;100.00;101624.66;5055277;28;20040;-83
2021/03/05 10:42:50;;;;;;;4.22;0.82;;;;;;;4.08;100.00;101631.72;5054815;28;20048;-78
2021/03/05 10:45:54;;;;;;;0.20;0.20;;;;;;;4.16;100.00;101625.84;5054838;28;20048;-81
2021/03/05 10:48:57;;;;;;;2.05;0.80;;;;;;;4.24;100.00;101630.22;5054632;28;20051;-76
2021/03/05 10:52:01;;;;;;;0.40;0.40;;;;;;;4.37;100.00;101627.91;5054743;28;20060;-77
2021/03/05 10:55:05;;;;;;;20.05;0.55;;;;;;;4.49;100.00;101628.31;5054361;28;20508;-75
2021/03/05 10:58:08;;;;;;;1.25;0.75;;;;;;;4.63;100.00;101630.31;5054432;28;20056;-78
2021/03/05 11:01:12;;;;;;;0.30;0.30;;;;;;;4.66;100.00;101637.78;5066062;28;20052;-78
2021/03/05 11:04:16;;;;;;;2.05;0.82;;;;;;;4.67;100.00;101630.31;5054157;28;20048;-78
2021/03/05 11:07:19;;;;;;;0.40;0.30;;;;;;;4.64;100.00;101634.63;5055007;28;20044;-79
2021/03/05 11:10:23;;;;;;;1.65;0.50;;;;;;;4.64;100.00;101631.88;5042209;28;20056;-79
2021/03/05 11:13:26;;;;;;;0.40;0.40;;;;;;;4.63;100.00;101631.09;5054825;28;20048;-78
2021/03/05 11:16:30;;;;;;;0.40;0.40;;;;;;;4.74;100.00;101627.56;5042411;28;20048;-78
2021/03/05 11:19:34;;;;;;;0.28;0.28;;;;;;;4.86;100.00;101632.69;5053965;28;20052;-78
2021/03/05 11:22:38;;;;;;;2.58;0.63;;;;;;;4.87;100.00;101631.53;5042455;28;20052;-79
2021/03/05 11:25:42;;;;;;;0.10;0.10;;;;;;;4.84;100.00;101644.13;5055063;28;20052;-78
2021/03/05 11:28:45;;;;;;;3.35;0.75;;;;;;;4.74;100.00;101649.66;5053833;28;20052;-79
2021/03/05 11:31:49;;;;;;;3.50;0.65;;;;;;;4.68;100.00;101651.22;5065729;28;20048;-78
2021/03/05 11:34:52;;;;;;;0.57;0.57;;;;;;;4.75;100.00;101652.00;5054600;28;20052;-78
2021/03/05 11:37:55;;;;;;;0.32;0.32;;;;;;;4.73;100.00;101654.38;5053730;28;20401;-79
2021/03/05 11:41:00;;;;;;;0.65;0.47;;;;;;;4.79;100.00;101652.00;5054469;28;20064;-79
2021/03/05 11:44:04;;;;;;;0.20;0.20;;;;;;;4.87;100.00;101661.88;5064991;28;20056;-79
2021/03/05 11:47:08;;;;;;;1.38;0.55;;;;;;;4.95;100.00;101652.41;5054613;28;20048;-79
2021/03/05 11:50:12;;;;;;;0.57;0.52;;;;;;;5.01;100.00;101659.91;5065068;28;20398;-79
2021/03/05 11:53:16;;;;;;;0.40;0.40;;;;;;;5.12;100.00;101646.13;5054300;28;20052;-79
2021/03/05 11:56:19;;;;;;;0.40;0.40;;;;;;;5.30;100.00;101644.94;5053947;28;20060;-79
2021/03/05 11:59:23;;;;;;;0.30;0.22;;;;;;;5.42;100.00;101646.47;5052915;28;20067;-80
2021/03/05 12:02:26;;;;;;;0.20;0.20;;;;;;;5.59;100.00;101651.19;5053149;28;20366;-79
2021/03/05 12:05:30;;;;;;;0.30;0.30;;;;;;;5.67;100.00;101640.91;5052912;28;20067;-80
2021/03/05 12:08:33;;;;;;;0.50;0.50;;;;;;;5.80;100.00;101645.63;5054160;28;20044;-80
2021/03/05 12:11:37;;;;;;;0.30;0.30;;;;;;;6.15;100.00;101632.88;5053811;28;20048;-79
2021/03/05 12:14:41;;;;;;;0.52;0.52;;;;;;;5.99;100.00;101631.38;5052880;28;20273;-79
2021/03/05 12:17:45;;;;;;;0.20;0.20;;;;;;;5.87;100.00;101634.56;5052558;28;20055;-79
2021/03/05 12:20:48;;;;;;;0.47;0.47;;;;;;;5.81;100.00;101638.91;5041297;28;20052;-78
2021/03/05 12:23:52;;;;;;;0.20;0.20;;;;;;;5.69;100.00;101639.34;5064420;28;20044;-79
2021/03/05 12:26:55;;;;;;;0.20;0.20;;;;;;;5.57;100.00;101636.97;5053507;28;20051;-79
2021/03/05 12:30:00;;;;;;;1.25;0.63;;;;;;;5.43;100.00;101639.78;5064106;28;20044;-79
2021/03/05 12:33:04;;;;;;;0.90;0.25;;;;;;;5.40;100.00;101640.56;5052070;28;20052;-79
2021/03/05 12:36:07;;;;;;;0.10;0.10;;;;;;;5.38;100.00;101637.41;5064162;28;20048;-79
2021/03/05 12:39:11;;;;;;;7.95;0.35;;;;;;;5.37;100.00;101639.38;5052299;28;20163;-79
2021/03/05 12:42:14;;;;;;;8.88;0.75;;;;;;;5.35;100.00;101635.44;5053181;28;20048;-79
2021/03/05 12:45:18;;;;;;;0.30;0.30;;;;;;;5.31;100.00;101642.94;5063090;28;20063;-79
2021/03/05 12:48:21;;;;;;;0.30;0.30;;;;;;;5.33;100.00;101644.13;5040344;28;20402;-79
2021/03/05 12:51:24;;;;;;;0.17;0.17;;;;;;;5.39;100.00;101647.28;5047610;28;20508;-79
2021/03/05 12:54:27;;;;;;;0.10;0.10;;;;;;;5.45;100.00;101636.63;5060315;28;20047;-78
2021/03/05 12:57:31;;;;;;;0.82;0.28;;;;;;;5.61;100.00;101637.75;5051167;28;20127;-79
2021/03/05 13:00:34;;;;;;;0.43;0.40;;;;;;;5.68;100.00;101635.00;5052791;28;20512;-79
2021/03/05 13:03:37;;;;;;;0.35;0.30;;;;;;;5.89;100.00;101637.72;5040318;28;20127;-78
2021/03/05 13:06:41;;;;;;;0.13;0.13;;;;;;;5.92;100.00;101633.38;5052882;28;20047;-79
2021/03/05 13:09:44;;;;;;;0.20;0.20;;;;;;;5.85;100.00;101630.63;5040550;28;20048;-79
2021/03/05 13:12:47;;;;;;;0.10;0.10;;;;;;;5.67;100.00;101630.66;5040226;28;20044;-79
2021/03/05 13:15:50;;;;;;;0.38;0.38;;;;;;;5.61;100.00;101631.47;5041787;28;20829;-79
2021/03/05 13:18:54;;;;;;;0.75;0.35;;;;;;;5.49;100.00;101629.91;5010311;28;20067;-79
2021/03/05 13:21:57;;;;;;;0.50;0.28;;;;;;;5.47;100.00;101629.50;5017698;28;20040;-78
2021/03/05 13:25:01;;;;;;;0.20;0.20;;;;;;;5.45;100.00;101634.66;5030521;28;20149;-78
2021/03/05 13:28:05;;;;;;;0.20;0.20;;;;;;;5.43;100.00;101620.44;5063643;28;20055;-78
2021/03/05 13:31:12;;;;;;;0.47;0.32;;;;;;;5.44;100.00;101616.47;5060325;28;20044;-78
2021/03/05 13:34:16;;;;;;;2.80;0.68;;;;;;;5.50;100.00;101622.41;5072283;28;20056;-79
2021/03/05 13:37:20;;;;;;;0.55;0.32;;;;;;;5.60;100.00;101622.38;5072287;28;20389;-78
2021/03/05 13:40:24;;;;;;;0.30;0.30;;;;;;;5.68;100.00;101610.09;5071529;28;20044;-78
2021/03/05 13:43:29;;;;;;;0.32;0.30;;;;;;;5.79;100.00;101613.63;5071123;28;20404;-78
2021/03/05 13:46:33;;;;;;;0.30;0.30;;;;;;;5.83;100.00;101616.38;5072249;28;20044;-79
2021/03/05 13:49:36;;;;;;;0.68;0.63;;;;;;;5.85;100.00;101603.75;5053482;28;20040;-80
2021/03/05 13:52:39;;;;;;;0.52;0.20;;;;;;;5.86;100.00;101605.34;5070813;28;20051;-78
2021/03/05 13:55:44;;;;;;;1.27;1.17;;;;;;;5.85;100.00;101606.53;5058453;28;20059;-78
2021/03/05 13:58:48;;;;;;;0.13;0.13;;;;;;;5.87;100.00;101615.22;5069835;28;20508;-80
2021/03/05 14:01:52;;;;;;;0.30;0.30;;;;;;;5.77;100.00;101613.25;5058808;28;20052;-80
2021/03/05 14:04:55;;;;;;;1.88;0.57;;;;;;;5.80;100.00;101612.47;5071710;28;20052;-80
2021/03/05 14:07:59;;;;;;;1.67;0.60;;;;;;;5.82;100.00;101604.56;5059710;28;20413;-80
2021/03/05 14:11:02;;;;;;;1.15;0.47;;;;;;;5.80;100.00;101606.13;5059571;28;20060;-82
2021/03/05 14:14:06;;;;;;;0.47;0.22;;;;;;;5.83;100.00;101617.16;5059702;28;20047;-80
2021/03/05 14:17:09;;;;;;;0.95;0.60;;;;;;;5.76;100.00;101611.66;5071900;28;20056;-81
2021/03/05 14:20:13;;;;;;;0.17;0.17;;;;;;;5.74;100.00;101614.03;5059492;28;20500;-81
2021/03/05 14:23:18;;;;;;;2.85;0.80;;;;;;;5.67;100.00;101622.38;5059585;28;20059;-81